sensor_id;sensor_type;location;lat;lon;timestamp;temperature;humidity
4749;DHT22;2388;53.582;9.962;2023-06-22T00:01:48;20.10;99.90
4749;DHT22;2388;53.582;9.962;2023-06-22T00:04:13;20.10;99.90
4749;DHT22;2388;53.582;9.962;2023-06-22T00:06:39;20.00;99.90
4749;DHT22;2388;53.582;9.962;2023-06-22T00:09:04;20.00;99.90
4749;DHT22;2388;53.582;9.962;2023-06-22T00:11:32;20.00;99.90
4749;DHT22;2388;53.582;9.962;2023-06-22T00:13:59;20.00;99.90
4749;DHT22;2388;53.582;9.962;2023-06-22T00:16:27;19.90;99.90
4749;DHT22;2388;53.582;9.962;2023-06-22T00:18:53;19.90;99.90
4749;DHT22;2388;53.582;9.962;2023-06-22T00:21:18;19.90;99.90
4749;DHT22;2388;53.582;9.962;2023-06-22T00:23:46;20.00;99.90
4749;DHT22;2388;53.582;9.962;2023-06-22T00:26:12;19.90;99.90
4749;DHT22;2388;53.582;9.962;2023-06-22T00:28:38;19.90;99.90
4749;DHT22;2388;53.582;9.962;2023-06-22T00:31:03;19.90;99.90
4749;DHT22;2388;53.582;9.962;2023-06-22T00:33:29;19.90;99.90
4749;DHT22;2388;53.582;9.962;2023-06-22T00:35:54;19.90;99.90
4749;DHT22;2388;53.582;9.962;2023-06-22T00:38:20;19.90;99.90
4749;DHT22;2388;53.582;9.962;2023-06-22T00:40:46;19.90;99.90
4749;DHT22;2388;53.582;9.962;2023-06-22T00:43:11;19.90;99.90
4749;DHT22;2388;53.582;9.962;2023-06-22T00:45:37;19.90;99.90
4749;DHT22;2388;53.582;9.962;2023-06-22T00:48:03;19.90;99.90
4749;DHT22;2388;53.582;9.962;2023-06-22T00:50:30;19.90;99.90
4749;DHT22;2388;53.582;9.962;2023-06-22T00:53:00;19.90;99.90
4749;DHT22;2388;53.582;9.962;2023-06-22T00:55:29;19.90;99.90
4749;DHT22;2388;53.582;9.962;2023-06-22T00:57:55;19.90;99.90
4749;DHT22;2388;53.582;9.962;2023-06-22T01:00:24;19.90;99.90
4749;DHT22;2388;53.582;9.962;2023-06-22T01:02:51;19.90;99.90
4749;DHT22;2388;53.582;9.962;2023-06-22T01:05:19;19.90;99.90
4749;DHT22;2388;53.582;9.962;2023-06-22T01:10:44;19.90;99.90
4749;DHT22;2388;53.582;9.962;2023-06-22T01:13:32;19.90;99.90
4749;DHT22;2388;53.582;9.962;2023-06-22T01:16:10;19.80;99.90
4749;DHT22;2388;53.582;9.962;2023-06-22T01:18:40;19.90;99.90
4749;DHT22;2388;53.582;9.962;2023-06-22T01:21:06;19.90;99.90
4749;DHT22;2388;53.582;9.962;2023-06-22T01:26:28;19.90;99.90
4749;DHT22;2388;53.582;9.962;2023-06-22T01:29:00;19.80;99.90
4749;DHT22;2388;53.582;9.962;2023-06-22T01:34:49;19.80;99.90
4749;DHT22;2388;53.582;9.962;2023-06-22T01:37:15;19.70;99.90
4749;DHT22;2388;53.582;9.962;2023-06-22T01:39:41;19.80;99.90
4749;DHT22;2388;53.582;9.962;2023-06-22T01:42:07;19.80;99.90
4749;DHT22;2388;53.582;9.962;2023-06-22T01:44:34;19.80;99.90
4749;DHT22;2388;53.582;9.962;2023-06-22T01:46:59;19.80;99.90
4749;DHT22;2388;53.582;9.962;2023-06-22T01:49:25;19.70;99.90
4749;DHT22;2388;53.582;9.962;2023-06-22T01:51:51;19.70;99.90
4749;DHT22;2388;53.582;9.962;2023-06-22T01:54:16;19.70;99.90
4749;DHT22;2388;53.582;9.962;2023-06-22T01:56:42;19.70;99.90
4749;DHT22;2388;53.582;9.962;2023-06-22T01:59:32;19.60;99.90
4749;DHT22;2388;53.582;9.962;2023-06-22T02:02:04;19.70;99.90
4749;DHT22;2388;53.582;9.962;2023-06-22T02:04:37;19.60;99.90
4749;DHT22;2388;53.582;9.962;2023-06-22T02:07:12;19.70;99.90
4749;DHT22;2388;53.582;9.962;2023-06-22T02:09:40;19.70;99.90
4749;DHT22;2388;53.582;9.962;2023-06-22T02:12:08;19.70;99.90
4749;DHT22;2388;53.582;9.962;2023-06-22T02:14:36;19.70;99.90
4749;DHT22;2388;53.582;9.962;2023-06-22T02:17:03;19.70;99.90
4749;DHT22;2388;53.582;9.962;2023-06-22T02:19:35;19.70;99.90
4749;DHT22;2388;53.582;9.962;2023-06-22T02:22:01;19.60;99.90
4749;DHT22;2388;53.582;9.962;2023-06-22T02:24:26;19.60;99.90
4749;DHT22;2388;53.582;9.962;2023-06-22T02:26:52;19.50;99.90
4749;DHT22;2388;53.582;9.962;2023-06-22T02:29:17;19.50;99.90
4749;DHT22;2388;53.582;9.962;2023-06-22T02:31:43;19.50;99.90
4749;DHT22;2388;53.582;9.962;2023-06-22T02:34:08;19.50;99.90
4749;DHT22;2388;53.582;9.962;2023-06-22T02:36:34;19.40;99.90
4749;DHT22;2388;53.582;9.962;2023-06-22T02:39:00;19.50;99.90
4749;DHT22;2388;53.582;9.962;2023-06-22T02:41:27;19.40;99.90
4749;DHT22;2388;53.582;9.962;2023-06-22T02:43:52;19.40;99.90
4749;DHT22;2388;53.582;9.962;2023-06-22T02:46:18;19.50;99.90
4749;DHT22;2388;53.582;9.962;2023-06-22T02:48:43;19.30;99.90
4749;DHT22;2388;53.582;9.962;2023-06-22T02:51:09;19.40;99.90
4749;DHT22;2388;53.582;9.962;2023-06-22T02:53:35;19.40;99.90
4749;DHT22;2388;53.582;9.962;2023-06-22T02:56:02;19.40;99.90
4749;DHT22;2388;53.582;9.962;2023-06-22T02:58:31;19.30;99.90
4749;DHT22;2388;53.582;9.962;2023-06-22T03:00:58;19.30;99.90
4749;DHT22;2388;53.582;9.962;2023-06-22T03:03:30;19.30;99.90
4749;DHT22;2388;53.582;9.962;2023-06-22T03:05:55;19.30;99.90
4749;DHT22;2388;53.582;9.962;2023-06-22T03:08:20;19.30;99.90
4749;DHT22;2388;53.582;9.962;2023-06-22T03:10:46;19.30;99.90
4749;DHT22;2388;53.582;9.962;2023-06-22T03:13:11;19.20;99.90
4749;DHT22;2388;53.582;9.962;2023-06-22T03:15:37;19.20;99.90
4749;DHT22;2388;53.582;9.962;2023-06-22T03:18:02;19.20;99.90
4749;DHT22;2388;53.582;9.962;2023-06-22T03:20:28;19.20;99.90
4749;DHT22;2388;53.582;9.962;2023-06-22T03:22:58;19.10;99.90
4749;DHT22;2388;53.582;9.962;2023-06-22T03:25:24;19.10;99.90
4749;DHT22;2388;53.582;9.962;2023-06-22T03:27:49;19.10;99.90
4749;DHT22;2388;53.582;9.962;2023-06-22T03:30:15;19.00;99.90
4749;DHT22;2388;53.582;9.962;2023-06-22T03:32:40;19.10;99.90
4749;DHT22;2388;53.582;9.962;2023-06-22T03:35:08;19.10;99.90
4749;DHT22;2388;53.582;9.962;2023-06-22T03:37:33;19.10;99.90
4749;DHT22;2388;53.582;9.962;2023-06-22T03:39:59;19.10;99.90
4749;DHT22;2388;53.582;9.962;2023-06-22T03:42:25;19.10;99.90
4749;DHT22;2388;53.582;9.962;2023-06-22T03:44:50;19.00;99.90
4749;DHT22;2388;53.582;9.962;2023-06-22T03:47:17;19.10;99.90
4749;DHT22;2388;53.582;9.962;2023-06-22T03:49:42;19.10;99.90
4749;DHT22;2388;53.582;9.962;2023-06-22T03:52:08;19.10;99.90
4749;DHT22;2388;53.582;9.962;2023-06-22T03:54:33;19.10;99.90
4749;DHT22;2388;53.582;9.962;2023-06-22T03:56:59;19.10;99.90
4749;DHT22;2388;53.582;9.962;2023-06-22T03:59:25;19.10;99.90
4749;DHT22;2388;53.582;9.962;2023-06-22T04:01:50;19.10;99.90
4749;DHT22;2388;53.582;9.962;2023-06-22T04:04:17;19.10;99.90
4749;DHT22;2388;53.582;9.962;2023-06-22T04:06:42;19.10;99.90
4749;DHT22;2388;53.582;9.962;2023-06-22T04:09:08;19.10;99.90
4749;DHT22;2388;53.582;9.962;2023-06-22T04:11:33;19.10;99.90
4749;DHT22;2388;53.582;9.962;2023-06-22T04:13:59;19.10;99.90
4749;DHT22;2388;53.582;9.962;2023-06-22T04:16:28;19.10;99.90
4749;DHT22;2388;53.582;9.962;2023-06-22T04:18:54;19.10;99.90
4749;DHT22;2388;53.582;9.962;2023-06-22T04:21:19;19.10;99.90
4749;DHT22;2388;53.582;9.962;2023-06-22T04:23:45;19.20;99.90
4749;DHT22;2388;53.582;9.962;2023-06-22T04:26:11;19.20;99.90
4749;DHT22;2388;53.582;9.962;2023-06-22T04:28:37;19.20;99.90
4749;DHT22;2388;53.582;9.962;2023-06-22T04:31:03;19.30;99.90
4749;DHT22;2388;53.582;9.962;2023-06-22T04:33:29;19.30;99.90
4749;DHT22;2388;53.582;9.962;2023-06-22T04:35:58;19.30;99.90
4749;DHT22;2388;53.582;9.962;2023-06-22T04:38:26;19.30;99.90
4749;DHT22;2388;53.582;9.962;2023-06-22T04:40:51;19.30;99.90
4749;DHT22;2388;53.582;9.962;2023-06-22T04:43:18;19.30;99.90
4749;DHT22;2388;53.582;9.962;2023-06-22T04:45:44;19.30;99.90
4749;DHT22;2388;53.582;9.962;2023-06-22T04:48:09;19.30;99.90
4749;DHT22;2388;53.582;9.962;2023-06-22T04:50:38;19.30;99.90
4749;DHT22;2388;53.582;9.962;2023-06-22T04:53:04;19.40;99.90
4749;DHT22;2388;53.582;9.962;2023-06-22T04:55:31;19.40;99.90
4749;DHT22;2388;53.582;9.962;2023-06-22T04:57:57;19.40;99.90
4749;DHT22;2388;53.582;9.962;2023-06-22T05:00:30;19.40;99.90
4749;DHT22;2388;53.582;9.962;2023-06-22T05:02:55;19.50;99.90
4749;DHT22;2388;53.582;9.962;2023-06-22T05:05:23;19.50;99.90
4749;DHT22;2388;53.582;9.962;2023-06-22T05:07:50;19.50;99.90
4749;DHT22;2388;53.582;9.962;2023-06-22T05:10:19;19.50;99.90
4749;DHT22;2388;53.582;9.962;2023-06-22T05:12:46;19.50;99.90
4749;DHT22;2388;53.582;9.962;2023-06-22T05:15:11;19.60;99.90
4749;DHT22;2388;53.582;9.962;2023-06-22T05:17:38;19.60;99.90
4749;DHT22;2388;53.582;9.962;2023-06-22T05:20:12;19.60;99.90
4749;DHT22;2388;53.582;9.962;2023-06-22T05:22:41;19.60;99.90
4749;DHT22;2388;53.582;9.962;2023-06-22T05:25:09;19.70;99.90
4749;DHT22;2388;53.582;9.962;2023-06-22T05:27:41;19.60;99.90
4749;DHT22;2388;53.582;9.962;2023-06-22T05:30:10;19.60;99.90
4749;DHT22;2388;53.582;9.962;2023-06-22T05:32:36;19.60;99.90
4749;DHT22;2388;53.582;9.962;2023-06-22T05:35:03;19.60;99.90
4749;DHT22;2388;53.582;9.962;2023-06-22T05:37:29;19.60;99.90
4749;DHT22;2388;53.582;9.962;2023-06-22T05:39:54;19.70;99.90
4749;DHT22;2388;53.582;9.962;2023-06-22T05:42:21;19.70;99.90
4749;DHT22;2388;53.582;9.962;2023-06-22T05:44:46;19.70;99.90
4749;DHT22;2388;53.582;9.962;2023-06-22T05:47:12;19.70;99.90
4749;DHT22;2388;53.582;9.962;2023-06-22T05:49:38;19.70;99.90
4749;DHT22;2388;53.582;9.962;2023-06-22T05:52:04;19.80;99.90
4749;DHT22;2388;53.582;9.962;2023-06-22T05:54:30;19.80;99.90
4749;DHT22;2388;53.582;9.962;2023-06-22T05:56:55;19.90;99.90
4749;DHT22;2388;53.582;9.962;2023-06-22T05:59:21;19.90;99.90
4749;DHT22;2388;53.582;9.962;2023-06-22T06:01:47;20.00;99.90
4749;DHT22;2388;53.582;9.962;2023-06-22T06:04:17;20.00;99.90
4749;DHT22;2388;53.582;9.962;2023-06-22T06:06:42;20.00;99.90
4749;DHT22;2388;53.582;9.962;2023-06-22T06:09:08;20.00;99.90
4749;DHT22;2388;53.582;9.962;2023-06-22T06:11:33;20.00;99.90
4749;DHT22;2388;53.582;9.962;2023-06-22T06:13:59;20.00;99.90
4749;DHT22;2388;53.582;9.962;2023-06-22T06:16:25;20.10;99.90
4749;DHT22;2388;53.582;9.962;2023-06-22T06:18:50;20.10;99.90
4749;DHT22;2388;53.582;9.962;2023-06-22T06:21:16;20.10;99.90
4749;DHT22;2388;53.582;9.962;2023-06-22T06:23:42;20.20;99.90
4749;DHT22;2388;53.582;9.962;2023-06-22T06:26:08;20.20;99.90
4749;DHT22;2388;53.582;9.962;2023-06-22T06:28:34;20.30;99.90
4749;DHT22;2388;53.582;9.962;2023-06-22T06:31:00;20.40;99.90
4749;DHT22;2388;53.582;9.962;2023-06-22T06:33:25;20.40;99.90
4749;DHT22;2388;53.582;9.962;2023-06-22T06:35:51;20.40;99.90
4749;DHT22;2388;53.582;9.962;2023-06-22T06:38:16;20.50;99.90
4749;DHT22;2388;53.582;9.962;2023-06-22T06:40:42;20.50;99.90
4749;DHT22;2388;53.582;9.962;2023-06-22T06:43:07;20.50;99.90
4749;DHT22;2388;53.582;9.962;2023-06-22T06:45:33;20.60;99.90
4749;DHT22;2388;53.582;9.962;2023-06-22T06:48:00;20.60;99.90
4749;DHT22;2388;53.582;9.962;2023-06-22T06:50:25;20.60;99.90
4749;DHT22;2388;53.582;9.962;2023-06-22T06:52:51;20.60;99.90
4749;DHT22;2388;53.582;9.962;2023-06-22T06:55:17;20.70;99.90
4749;DHT22;2388;53.582;9.962;2023-06-22T06:57:43;20.70;99.90
4749;DHT22;2388;53.582;9.962;2023-06-22T07:00:12;20.70;99.90
4749;DHT22;2388;53.582;9.962;2023-06-22T07:02:43;20.70;99.90
4749;DHT22;2388;53.582;9.962;2023-06-22T07:05:10;20.70;99.90
4749;DHT22;2388;53.582;9.962;2023-06-22T07:07:36;20.80;99.90
4749;DHT22;2388;53.582;9.962;2023-06-22T07:10:02;20.80;99.90
4749;DHT22;2388;53.582;9.962;2023-06-22T07:12:28;20.80;99.90
4749;DHT22;2388;53.582;9.962;2023-06-22T07:15:05;20.80;99.90
4749;DHT22;2388;53.582;9.962;2023-06-22T07:17:33;20.90;99.90
4749;DHT22;2388;53.582;9.962;2023-06-22T07:19:58;20.90;99.90
4749;DHT22;2388;53.582;9.962;2023-06-22T07:22:24;21.00;99.90
4749;DHT22;2388;53.582;9.962;2023-06-22T07:24:49;21.00;99.90
4749;DHT22;2388;53.582;9.962;2023-06-22T07:27:15;21.00;99.90
4749;DHT22;2388;53.582;9.962;2023-06-22T07:29:44;21.10;99.90
4749;DHT22;2388;53.582;9.962;2023-06-22T07:32:10;21.10;99.90
4749;DHT22;2388;53.582;9.962;2023-06-22T07:34:35;21.20;99.90
4749;DHT22;2388;53.582;9.962;2023-06-22T07:37:01;21.20;99.90
4749;DHT22;2388;53.582;9.962;2023-06-22T07:39:26;21.20;99.90
4749;DHT22;2388;53.582;9.962;2023-06-22T07:41:53;21.30;99.90
4749;DHT22;2388;53.582;9.962;2023-06-22T07:44:19;21.30;99.90
4749;DHT22;2388;53.582;9.962;2023-06-22T07:46:44;21.40;99.90
4749;DHT22;2388;53.582;9.962;2023-06-22T07:49:10;21.40;99.90
4749;DHT22;2388;53.582;9.962;2023-06-22T07:51:35;21.50;99.90
4749;DHT22;2388;53.582;9.962;2023-06-22T07:54:01;21.50;99.90
4749;DHT22;2388;53.582;9.962;2023-06-22T07:56:26;21.60;99.90
4749;DHT22;2388;53.582;9.962;2023-06-22T07:58:52;21.60;99.90
4749;DHT22;2388;53.582;9.962;2023-06-22T08:01:18;21.60;99.90
4749;DHT22;2388;53.582;9.962;2023-06-22T08:03:47;21.70;99.90
4749;DHT22;2388;53.582;9.962;2023-06-22T08:06:13;21.70;99.90
4749;DHT22;2388;53.582;9.962;2023-06-22T08:08:39;21.70;99.90
4749;DHT22;2388;53.582;9.962;2023-06-22T08:11:05;21.70;99.90
4749;DHT22;2388;53.582;9.962;2023-06-22T08:13:31;21.80;99.90
4749;DHT22;2388;53.582;9.962;2023-06-22T08:15:56;21.80;99.90
4749;DHT22;2388;53.582;9.962;2023-06-22T08:18:22;21.80;99.90
4749;DHT22;2388;53.582;9.962;2023-06-22T08:20:47;21.80;99.90
4749;DHT22;2388;53.582;9.962;2023-06-22T08:23:13;21.80;99.90
4749;DHT22;2388;53.582;9.962;2023-06-22T08:25:38;21.80;99.90
4749;DHT22;2388;53.582;9.962;2023-06-22T08:28:04;21.90;99.90
4749;DHT22;2388;53.582;9.962;2023-06-22T08:30:30;21.90;99.90
4749;DHT22;2388;53.582;9.962;2023-06-22T08:32:56;22.00;99.90
4749;DHT22;2388;53.582;9.962;2023-06-22T08:35:22;21.90;99.90
4749;DHT22;2388;53.582;9.962;2023-06-22T08:37:48;22.00;99.90
4749;DHT22;2388;53.582;9.962;2023-06-22T08:40:18;22.00;99.90
4749;DHT22;2388;53.582;9.962;2023-06-22T08:42:46;22.10;99.90
4749;DHT22;2388;53.582;9.962;2023-06-22T08:45:12;22.10;99.90
4749;DHT22;2388;53.582;9.962;2023-06-22T08:47:38;22.10;99.90
4749;DHT22;2388;53.582;9.962;2023-06-22T08:50:05;22.20;99.90
4749;DHT22;2388;53.582;9.962;2023-06-22T08:52:31;22.20;99.90
4749;DHT22;2388;53.582;9.962;2023-06-22T08:54:56;22.20;99.90
4749;DHT22;2388;53.582;9.962;2023-06-22T08:57:23;22.30;99.90
4749;DHT22;2388;53.582;9.962;2023-06-22T08:59:49;22.30;99.90
4749;DHT22;2388;53.582;9.962;2023-06-22T09:02:14;22.40;99.90
4749;DHT22;2388;53.582;9.962;2023-06-22T09:04:40;22.40;99.90
4749;DHT22;2388;53.582;9.962;2023-06-22T09:07:05;22.40;99.90
4749;DHT22;2388;53.582;9.962;2023-06-22T09:09:31;22.50;99.90
4749;DHT22;2388;53.582;9.962;2023-06-22T09:11:56;22.50;99.90
4749;DHT22;2388;53.582;9.962;2023-06-22T09:14:22;22.50;99.90
4749;DHT22;2388;53.582;9.962;2023-06-22T09:16:47;22.50;99.90
4749;DHT22;2388;53.582;9.962;2023-06-22T09:19:13;22.60;99.90
4749;DHT22;2388;53.582;9.962;2023-06-22T09:21:38;22.60;99.90
4749;DHT22;2388;53.582;9.962;2023-06-22T09:24:04;22.70;99.90
4749;DHT22;2388;53.582;9.962;2023-06-22T09:26:30;22.70;99.90
4749;DHT22;2388;53.582;9.962;2023-06-22T09:28:55;22.80;99.90
4749;DHT22;2388;53.582;9.962;2023-06-22T09:31:21;22.90;99.90
4749;DHT22;2388;53.582;9.962;2023-06-22T09:33:53;22.90;99.90
4749;DHT22;2388;53.582;9.962;2023-06-22T09:36:20;23.00;99.90
4749;DHT22;2388;53.582;9.962;2023-06-22T09:38:45;23.00;99.90
4749;DHT22;2388;53.582;9.962;2023-06-22T09:41:11;23.00;99.90
4749;DHT22;2388;53.582;9.962;2023-06-22T09:43:36;23.00;99.90
4749;DHT22;2388;53.582;9.962;2023-06-22T09:46:02;23.10;99.90
4749;DHT22;2388;53.582;9.962;2023-06-22T09:48:28;23.10;99.90
4749;DHT22;2388;53.582;9.962;2023-06-22T09:50:55;23.10;99.90
4749;DHT22;2388;53.582;9.962;2023-06-22T09:53:21;23.20;99.90
4749;DHT22;2388;53.582;9.962;2023-06-22T09:55:46;23.20;99.90
4749;DHT22;2388;53.582;9.962;2023-06-22T09:58:12;23.30;99.90
4749;DHT22;2388;53.582;9.962;2023-06-22T10:00:37;23.30;99.90
4749;DHT22;2388;53.582;9.962;2023-06-22T10:03:03;23.30;99.90
4749;DHT22;2388;53.582;9.962;2023-06-22T10:05:28;23.40;99.90
4749;DHT22;2388;53.582;9.962;2023-06-22T10:07:54;23.50;99.90
4749;DHT22;2388;53.582;9.962;2023-06-22T10:10:19;23.50;99.90
4749;DHT22;2388;53.582;9.962;2023-06-22T10:12:47;23.50;99.90
4749;DHT22;2388;53.582;9.962;2023-06-22T10:15:13;23.50;99.90
4749;DHT22;2388;53.582;9.962;2023-06-22T10:17:39;23.50;99.90
4749;DHT22;2388;53.582;9.962;2023-06-22T10:20:06;23.60;99.90
4749;DHT22;2388;53.582;9.962;2023-06-22T10:22:39;23.60;99.90
4749;DHT22;2388;53.582;9.962;2023-06-22T10:25:05;23.70;99.90
4749;DHT22;2388;53.582;9.962;2023-06-22T10:27:31;23.80;99.90
4749;DHT22;2388;53.582;9.962;2023-06-22T10:29:57;23.80;99.90
4749;DHT22;2388;53.582;9.962;2023-06-22T10:32:23;23.80;99.90
4749;DHT22;2388;53.582;9.962;2023-06-22T10:34:48;23.80;99.90
4749;DHT22;2388;53.582;9.962;2023-06-22T10:37:14;23.80;99.90
4749;DHT22;2388;53.582;9.962;2023-06-22T10:39:39;23.90;99.90
4749;DHT22;2388;53.582;9.962;2023-06-22T10:42:05;23.90;99.90
4749;DHT22;2388;53.582;9.962;2023-06-22T10:44:30;23.90;99.90
4749;DHT22;2388;53.582;9.962;2023-06-22T10:46:56;24.00;99.90
4749;DHT22;2388;53.582;9.962;2023-06-22T10:49:21;23.90;99.90
4749;DHT22;2388;53.582;9.962;2023-06-22T10:51:47;24.00;99.90
4749;DHT22;2388;53.582;9.962;2023-06-22T10:54:12;24.20;99.90
4749;DHT22;2388;53.582;9.962;2023-06-22T10:56:39;24.20;99.90
4749;DHT22;2388;53.582;9.962;2023-06-22T10:59:05;24.10;99.90
4749;DHT22;2388;53.582;9.962;2023-06-22T11:01:30;24.10;99.90
4749;DHT22;2388;53.582;9.962;2023-06-22T11:03:59;24.00;99.90
4749;DHT22;2388;53.582;9.962;2023-06-22T11:06:24;24.20;99.90
4749;DHT22;2388;53.582;9.962;2023-06-22T11:08:56;24.20;99.90
4749;DHT22;2388;53.582;9.962;2023-06-22T11:14:53;24.20;99.90
4749;DHT22;2388;53.582;9.962;2023-06-22T11:17:19;24.20;99.90
4749;DHT22;2388;53.582;9.962;2023-06-22T11:19:44;24.30;99.90
4749;DHT22;2388;53.582;9.962;2023-06-22T11:22:10;24.40;99.90
4749;DHT22;2388;53.582;9.962;2023-06-22T11:24:35;24.40;99.90
4749;DHT22;2388;53.582;9.962;2023-06-22T11:27:01;24.60;99.90
4749;DHT22;2388;53.582;9.962;2023-06-22T11:29:26;24.80;99.90
4749;DHT22;2388;53.582;9.962;2023-06-22T11:31:53;24.90;99.90
4749;DHT22;2388;53.582;9.962;2023-06-22T11:34:18;25.00;99.90
4749;DHT22;2388;53.582;9.962;2023-06-22T11:36:44;25.00;99.90
4749;DHT22;2388;53.582;9.962;2023-06-22T11:39:10;25.10;99.90
4749;DHT22;2388;53.582;9.962;2023-06-22T11:41:37;25.00;99.90
4749;DHT22;2388;53.582;9.962;2023-06-22T11:44:02;25.00;99.90
4749;DHT22;2388;53.582;9.962;2023-06-22T11:46:29;25.00;99.90
4749;DHT22;2388;53.582;9.962;2023-06-22T11:48:55;25.00;99.90
4749;DHT22;2388;53.582;9.962;2023-06-22T11:51:20;25.10;99.90
4749;DHT22;2388;53.582;9.962;2023-06-22T11:53:46;25.20;99.90
4749;DHT22;2388;53.582;9.962;2023-06-22T11:56:11;25.30;99.90
4749;DHT22;2388;53.582;9.962;2023-06-22T11:58:37;25.30;99.90
4749;DHT22;2388;53.582;9.962;2023-06-22T12:01:02;25.20;99.90
4749;DHT22;2388;53.582;9.962;2023-06-22T12:03:28;25.20;99.90
4749;DHT22;2388;53.582;9.962;2023-06-22T12:05:54;25.30;99.90
4749;DHT22;2388;53.582;9.962;2023-06-22T12:08:19;25.30;99.90
4749;DHT22;2388;53.582;9.962;2023-06-22T12:10:45;25.40;99.90
4749;DHT22;2388;53.582;9.962;2023-06-22T12:13:10;25.30;99.90
4749;DHT22;2388;53.582;9.962;2023-06-22T12:15:36;25.10;99.90
4749;DHT22;2388;53.582;9.962;2023-06-22T12:18:01;24.90;99.90
4749;DHT22;2388;53.582;9.962;2023-06-22T12:20:27;25.00;99.90
4749;DHT22;2388;53.582;9.962;2023-06-22T12:22:53;24.90;99.90
4749;DHT22;2388;53.582;9.962;2023-06-22T12:25:22;24.90;99.90
4749;DHT22;2388;53.582;9.962;2023-06-22T12:27:47;24.90;99.90
4749;DHT22;2388;53.582;9.962;2023-06-22T12:30:13;24.90;99.90
4749;DHT22;2388;53.582;9.962;2023-06-22T12:32:38;24.90;99.90
4749;DHT22;2388;53.582;9.962;2023-06-22T12:35:04;25.00;99.90
4749;DHT22;2388;53.582;9.962;2023-06-22T12:37:30;25.00;99.90
4749;DHT22;2388;53.582;9.962;2023-06-22T12:39:57;25.00;99.90
4749;DHT22;2388;53.582;9.962;2023-06-22T12:42:22;24.90;99.90
4749;DHT22;2388;53.582;9.962;2023-06-22T12:44:47;24.90;99.90
4749;DHT22;2388;53.582;9.962;2023-06-22T12:47:13;25.00;99.90
4749;DHT22;2388;53.582;9.962;2023-06-22T12:49:39;25.00;99.90
4749;DHT22;2388;53.582;9.962;2023-06-22T12:52:09;25.30;99.90
4749;DHT22;2388;53.582;9.962;2023-06-22T12:54:36;25.70;99.90
4749;DHT22;2388;53.582;9.962;2023-06-22T12:57:02;25.70;99.90
4749;DHT22;2388;53.582;9.962;2023-06-22T12:59:27;25.70;99.90
4749;DHT22;2388;53.582;9.962;2023-06-22T13:01:53;25.60;99.90
4749;DHT22;2388;53.582;9.962;2023-06-22T13:04:18;25.50;99.90
4749;DHT22;2388;53.582;9.962;2023-06-22T13:06:45;25.50;99.90
4749;DHT22;2388;53.582;9.962;2023-06-22T13:09:19;25.80;99.90
4749;DHT22;2388;53.582;9.962;2023-06-22T13:11:44;25.80;99.90
4749;DHT22;2388;53.582;9.962;2023-06-22T13:14:10;25.70;99.90
4749;DHT22;2388;53.582;9.962;2023-06-22T13:16:35;25.70;99.90
4749;DHT22;2388;53.582;9.962;2023-06-22T13:19:01;25.80;99.90
4749;DHT22;2388;53.582;9.962;2023-06-22T13:21:26;25.80;99.90
4749;DHT22;2388;53.582;9.962;2023-06-22T13:23:52;25.90;99.90
4749;DHT22;2388;53.582;9.962;2023-06-22T13:26:17;25.90;99.90
4749;DHT22;2388;53.582;9.962;2023-06-22T13:28:43;25.80;99.90
4749;DHT22;2388;53.582;9.962;2023-06-22T13:31:08;25.80;99.90
4749;DHT22;2388;53.582;9.962;2023-06-22T13:33:34;25.80;99.90
4749;DHT22;2388;53.582;9.962;2023-06-22T13:35:59;25.70;99.90
4749;DHT22;2388;53.582;9.962;2023-06-22T13:38:25;25.80;99.90
4749;DHT22;2388;53.582;9.962;2023-06-22T13:40:50;25.80;99.90
4749;DHT22;2388;53.582;9.962;2023-06-22T13:43:16;25.70;99.90
4749;DHT22;2388;53.582;9.962;2023-06-22T13:45:42;25.60;99.90
4749;DHT22;2388;53.582;9.962;2023-06-22T13:48:07;25.50;99.90
4749;DHT22;2388;53.582;9.962;2023-06-22T13:50:33;25.40;99.90
4749;DHT22;2388;53.582;9.962;2023-06-22T13:52:58;25.40;99.90
4749;DHT22;2388;53.582;9.962;2023-06-22T13:55:24;25.40;99.90
4749;DHT22;2388;53.582;9.962;2023-06-22T14:01:24;25.50;99.90
4749;DHT22;2388;53.582;9.962;2023-06-22T14:03:49;25.60;99.90
4749;DHT22;2388;53.582;9.962;2023-06-22T14:06:15;25.60;99.90
4749;DHT22;2388;53.582;9.962;2023-06-22T14:08:40;25.70;99.90
4749;DHT22;2388;53.582;9.962;2023-06-22T14:11:06;25.60;99.90
4749;DHT22;2388;53.582;9.962;2023-06-22T14:13:31;25.60;99.90
4749;DHT22;2388;53.582;9.962;2023-06-22T14:15:57;25.60;99.90
4749;DHT22;2388;53.582;9.962;2023-06-22T14:18:23;25.60;99.90
4749;DHT22;2388;53.582;9.962;2023-06-22T14:20:48;25.50;99.90
4749;DHT22;2388;53.582;9.962;2023-06-22T14:23:14;25.50;99.90
4749;DHT22;2388;53.582;9.962;2023-06-22T14:25:40;25.60;99.90
4749;DHT22;2388;53.582;9.962;2023-06-22T14:28:06;25.60;99.90
4749;DHT22;2388;53.582;9.962;2023-06-22T14:30:31;25.50;99.90
4749;DHT22;2388;53.582;9.962;2023-06-22T14:32:57;25.40;99.90
4749;DHT22;2388;53.582;9.962;2023-06-22T14:39:15;25.40;99.90
4749;DHT22;2388;53.582;9.962;2023-06-22T14:41:41;25.40;99.90
4749;DHT22;2388;53.582;9.962;2023-06-22T14:44:06;25.30;99.90
4749;DHT22;2388;53.582;9.962;2023-06-22T14:46:32;25.30;99.90
4749;DHT22;2388;53.582;9.962;2023-06-22T14:48:57;25.20;99.90
4749;DHT22;2388;53.582;9.962;2023-06-22T14:51:23;25.30;99.90
4749;DHT22;2388;53.582;9.962;2023-06-22T14:53:48;25.30;99.90
4749;DHT22;2388;53.582;9.962;2023-06-22T14:56:14;25.20;99.90
4749;DHT22;2388;53.582;9.962;2023-06-22T14:58:41;25.10;99.90
4749;DHT22;2388;53.582;9.962;2023-06-22T15:01:10;25.20;99.90
4749;DHT22;2388;53.582;9.962;2023-06-22T15:03:36;25.10;99.90
4749;DHT22;2388;53.582;9.962;2023-06-22T15:06:03;25.10;99.90
4749;DHT22;2388;53.582;9.962;2023-06-22T15:08:28;25.10;99.90
4749;DHT22;2388;53.582;9.962;2023-06-22T15:10:54;25.10;99.90
4749;DHT22;2388;53.582;9.962;2023-06-22T15:13:21;25.20;99.90
4749;DHT22;2388;53.582;9.962;2023-06-22T15:15:48;25.10;99.90
4749;DHT22;2388;53.582;9.962;2023-06-22T15:18:14;25.10;99.90
4749;DHT22;2388;53.582;9.962;2023-06-22T15:20:40;25.10;99.90
4749;DHT22;2388;53.582;9.962;2023-06-22T15:23:06;25.00;99.90
4749;DHT22;2388;53.582;9.962;2023-06-22T15:25:33;25.00;99.90
4749;DHT22;2388;53.582;9.962;2023-06-22T15:27:59;25.00;99.90
4749;DHT22;2388;53.582;9.962;2023-06-22T15:30:24;25.00;99.90
4749;DHT22;2388;53.582;9.962;2023-06-22T15:32:50;24.90;99.90
4749;DHT22;2388;53.582;9.962;2023-06-22T15:35:16;24.80;99.90
4749;DHT22;2388;53.582;9.962;2023-06-22T15:37:45;24.80;99.90
4749;DHT22;2388;53.582;9.962;2023-06-22T15:40:11;24.80;99.90
4749;DHT22;2388;53.582;9.962;2023-06-22T15:42:36;24.80;99.90
4749;DHT22;2388;53.582;9.962;2023-06-22T15:45:02;24.80;99.90
4749;DHT22;2388;53.582;9.962;2023-06-22T15:47:28;24.80;99.90
4749;DHT22;2388;53.582;9.962;2023-06-22T15:49:53;24.90;99.90
4749;DHT22;2388;53.582;9.962;2023-06-22T15:52:19;24.80;99.90
4749;DHT22;2388;53.582;9.962;2023-06-22T15:54:45;24.90;99.90
4749;DHT22;2388;53.582;9.962;2023-06-22T15:57:11;24.90;99.90
4749;DHT22;2388;53.582;9.962;2023-06-22T15:59:38;24.90;99.90
4749;DHT22;2388;53.582;9.962;2023-06-22T16:02:04;24.80;99.90
4749;DHT22;2388;53.582;9.962;2023-06-22T16:04:30;24.80;99.90
4749;DHT22;2388;53.582;9.962;2023-06-22T16:06:55;24.80;99.90
4749;DHT22;2388;53.582;9.962;2023-06-22T16:09:21;24.80;99.90
4749;DHT22;2388;53.582;9.962;2023-06-22T16:11:46;24.80;99.90
4749;DHT22;2388;53.582;9.962;2023-06-22T16:14:12;24.80;99.90
4749;DHT22;2388;53.582;9.962;2023-06-22T16:16:37;24.80;99.90